sensor_id;sensor_type;location;lat;lon;timestamp;P1;durP1;ratioP1;P2;durP2;ratioP2
16866;SDS011;8550;52.596;13.320;2023-03-13T00:00:49;3.70;;;1.65;;
16866;SDS011;8550;52.596;13.320;2023-03-13T00:06:02;5.13;;;2.53;;
16866;SDS011;8550;52.596;13.320;2023-03-13T00:16:32;8.15;;;3.10;;
16866;SDS011;8550;52.596;13.320;2023-03-13T00:21:43;5.97;;;2.10;;
16866;SDS011;8550;52.596;13.320;2023-03-13T00:26:46;9.17;;;2.13;;
16866;SDS011;8550;52.596;13.320;2023-03-13T00:31:52;10.43;;;2.38;;
16866;SDS011;8550;52.596;13.320;2023-03-13T00:37:03;6.03;;;2.17;;
16866;SDS011;8550;52.596;13.320;2023-03-13T00:42:06;7.17;;;2.67;;
16866;SDS011;8550;52.596;13.320;2023-03-13T00:47:09;6.13;;;2.50;;
16866;SDS011;8550;52.596;13.320;2023-03-13T00:52:20;9.25;;;2.40;;
16866;SDS011;8550;52.596;13.320;2023-03-13T00:57:28;5.53;;;2.10;;
16866;SDS011;8550;52.596;13.320;2023-03-13T01:02:30;5.45;;;2.63;;
16866;SDS011;8550;52.596;13.320;2023-03-13T01:07:36;7.32;;;2.38;;
16866;SDS011;8550;52.596;13.320;2023-03-13T01:12:38;5.97;;;2.93;;
16866;SDS011;8550;52.596;13.320;2023-03-13T01:17:42;11.40;;;3.23;;
16866;SDS011;8550;52.596;13.320;2023-03-13T01:22:56;11.52;;;2.67;;
16866;SDS011;8550;52.596;13.320;2023-03-13T01:27:58;5.90;;;2.33;;
16866;SDS011;8550;52.596;13.320;2023-03-13T01:33:00;7.47;;;2.20;;
16866;SDS011;8550;52.596;13.320;2023-03-13T01:38:15;8.32;;;2.13;;
16866;SDS011;8550;52.596;13.320;2023-03-13T01:43:19;5.55;;;1.70;;
16866;SDS011;8550;52.596;13.320;2023-03-13T01:48:24;4.40;;;1.83;;
16866;SDS011;8550;52.596;13.320;2023-03-13T01:53:34;11.60;;;2.33;;
16866;SDS011;8550;52.596;13.320;2023-03-13T02:03:59;11.23;;;2.40;;
16866;SDS011;8550;52.596;13.320;2023-03-13T02:09:04;9.60;;;2.30;;
16866;SDS011;8550;52.596;13.320;2023-03-13T02:14:10;9.13;;;2.05;;
16866;SDS011;8550;52.596;13.320;2023-03-13T02:19:16;5.95;;;1.40;;
16866;SDS011;8550;52.596;13.320;2023-03-13T02:24:24;9.27;;;1.53;;
16866;SDS011;8550;52.596;13.320;2023-03-13T02:29:32;6.03;;;2.05;;
16866;SDS011;8550;52.596;13.320;2023-03-13T02:34:35;5.35;;;1.60;;
16866;SDS011;8550;52.596;13.320;2023-03-13T02:39:40;10.73;;;1.80;;
16866;SDS011;8550;52.596;13.320;2023-03-13T02:44:47;5.20;;;1.50;;
16866;SDS011;8550;52.596;13.320;2023-03-13T02:49:50;8.65;;;2.72;;
16866;SDS011;8550;52.596;13.320;2023-03-13T02:54:54;10.60;;;2.40;;
16866;SDS011;8550;52.596;13.320;2023-03-13T03:00:03;4.90;;;1.70;;
16866;SDS011;8550;52.596;13.320;2023-03-13T03:05:11;9.13;;;1.98;;
16866;SDS011;8550;52.596;13.320;2023-03-13T03:10:14;9.18;;;2.75;;
16866;SDS011;8550;52.596;13.320;2023-03-13T03:15:19;9.23;;;2.00;;
16866;SDS011;8550;52.596;13.320;2023-03-13T03:20:21;5.47;;;2.10;;
16866;SDS011;8550;52.596;13.320;2023-03-13T03:25:23;10.18;;;2.10;;
16866;SDS011;8550;52.596;13.320;2023-03-13T03:30:27;5.37;;;1.47;;
16866;SDS011;8550;52.596;13.320;2023-03-13T03:35:29;9.50;;;2.20;;
16866;SDS011;8550;52.596;13.320;2023-03-13T03:40:31;5.25;;;1.38;;
16866;SDS011;8550;52.596;13.320;2023-03-13T03:45:34;6.17;;;2.17;;
16866;SDS011;8550;52.596;13.320;2023-03-13T03:50:37;7.60;;;2.07;;
16866;SDS011;8550;52.596;13.320;2023-03-13T03:55:39;10.25;;;1.73;;
16866;SDS011;8550;52.596;13.320;2023-03-13T04:00:43;10.82;;;1.70;;
16866;SDS011;8550;52.596;13.320;2023-03-13T04:05:45;5.70;;;1.20;;
16866;SDS011;8550;52.596;13.320;2023-03-13T04:10:47;7.63;;;1.77;;
16866;SDS011;8550;52.596;13.320;2023-03-13T04:15:51;9.10;;;1.60;;
16866;SDS011;8550;52.596;13.320;2023-03-13T04:20:58;6.17;;;2.03;;
16866;SDS011;8550;52.596;13.320;2023-03-13T04:26:01;5.80;;;1.52;;
16866;SDS011;8550;52.596;13.320;2023-03-13T04:31:04;10.85;;;1.13;;
16866;SDS011;8550;52.596;13.320;2023-03-13T04:36:06;10.50;;;1.53;;
16866;SDS011;8550;52.596;13.320;2023-03-13T04:41:08;8.90;;;2.27;;
16866;SDS011;8550;52.596;13.320;2023-03-13T04:46:12;8.45;;;1.23;;
16866;SDS011;8550;52.596;13.320;2023-03-13T04:51:14;6.60;;;0.95;;
16866;SDS011;8550;52.596;13.320;2023-03-13T04:56:19;4.53;;;1.33;;
16866;SDS011;8550;52.596;13.320;2023-03-13T05:01:24;9.25;;;1.80;;
16866;SDS011;8550;52.596;13.320;2023-03-13T05:06:26;6.05;;;1.55;;
16866;SDS011;8550;52.596;13.320;2023-03-13T05:11:27;6.20;;;1.53;;
16866;SDS011;8550;52.596;13.320;2023-03-13T05:16:31;5.05;;;1.50;;
16866;SDS011;8550;52.596;13.320;2023-03-13T05:21:33;13.88;;;2.17;;
16866;SDS011;8550;52.596;13.320;2023-03-13T05:26:36;14.00;;;1.63;;
16866;SDS011;8550;52.596;13.320;2023-03-13T05:31:39;9.03;;;2.00;;
16866;SDS011;8550;52.596;13.320;2023-03-13T05:36:41;6.00;;;1.73;;
16866;SDS011;8550;52.596;13.320;2023-03-13T05:41:43;10.02;;;1.38;;
16866;SDS011;8550;52.596;13.320;2023-03-13T05:46:47;7.70;;;1.43;;
16866;SDS011;8550;52.596;13.320;2023-03-13T05:51:49;7.55;;;1.40;;
16866;SDS011;8550;52.596;13.320;2023-03-13T05:56:51;13.15;;;1.83;;
16866;SDS011;8550;52.596;13.320;2023-03-13T06:01:54;9.17;;;1.00;;
16866;SDS011;8550;52.596;13.320;2023-03-13T06:06:56;10.15;;;1.75;;
16866;SDS011;8550;52.596;13.320;2023-03-13T06:11:58;8.32;;;1.60;;
16866;SDS011;8550;52.596;13.320;2023-03-13T06:17:02;4.70;;;1.33;;
16866;SDS011;8550;52.596;13.320;2023-03-13T06:22:04;3.03;;;1.17;;
16866;SDS011;8550;52.596;13.320;2023-03-13T06:27:07;3.33;;;0.93;;
16866;SDS011;8550;52.596;13.320;2023-03-13T06:32:11;7.07;;;1.42;;
16866;SDS011;8550;52.596;13.320;2023-03-13T06:37:13;10.63;;;1.60;;
16866;SDS011;8550;52.596;13.320;2023-03-13T06:42:15;3.17;;;1.10;;
16866;SDS011;8550;52.596;13.320;2023-03-13T06:47:18;5.40;;;1.35;;
16866;SDS011;8550;52.596;13.320;2023-03-13T06:52:20;9.47;;;1.30;;
16866;SDS011;8550;52.596;13.320;2023-03-13T07:02:51;8.30;;;1.45;;
16866;SDS011;8550;52.596;13.320;2023-03-13T07:07:52;9.80;;;1.70;;
16866;SDS011;8550;52.596;13.320;2023-03-13T07:12:55;10.60;;;1.57;;
16866;SDS011;8550;52.596;13.320;2023-03-13T07:23:24;13.93;;;2.53;;
16866;SDS011;8550;52.596;13.320;2023-03-13T07:28:40;6.40;;;1.47;;
16866;SDS011;8550;52.596;13.320;2023-03-13T07:33:52;6.93;;;2.60;;
16866;SDS011;8550;52.596;13.320;2023-03-13T07:38:56;6.18;;;1.00;;
16866;SDS011;8550;52.596;13.320;2023-03-13T07:44:00;8.83;;;1.50;;
16866;SDS011;8550;52.596;13.320;2023-03-13T07:49:04;7.65;;;1.10;;
16866;SDS011;8550;52.596;13.320;2023-03-13T07:54:13;2.75;;;1.08;;
16866;SDS011;8550;52.596;13.320;2023-03-13T07:59:15;6.57;;;1.67;;
16866;SDS011;8550;52.596;13.320;2023-03-13T08:04:19;9.33;;;1.77;;
16866;SDS011;8550;52.596;13.320;2023-03-13T08:09:23;8.80;;;1.35;;
16866;SDS011;8550;52.596;13.320;2023-03-13T08:14:25;2.42;;;0.70;;
16866;SDS011;8550;52.596;13.320;2023-03-13T08:19:31;12.70;;;2.83;;
16866;SDS011;8550;52.596;13.320;2023-03-13T08:24:37;4.47;;;1.60;;
16866;SDS011;8550;52.596;13.320;2023-03-13T08:29:40;5.38;;;1.63;;
16866;SDS011;8550;52.596;13.320;2023-03-13T08:34:49;8.97;;;1.30;;
16866;SDS011;8550;52.596;13.320;2023-03-13T08:39:52;4.05;;;1.55;;
16866;SDS011;8550;52.596;13.320;2023-03-13T08:44:56;4.40;;;1.48;;
16866;SDS011;8550;52.596;13.320;2023-03-13T08:50:06;2.93;;;0.90;;
16866;SDS011;8550;52.596;13.320;2023-03-13T08:55:09;12.23;;;1.77;;
16866;SDS011;8550;52.596;13.320;2023-03-13T09:00:17;8.73;;;1.33;;
16866;SDS011;8550;52.596;13.320;2023-03-13T09:05:24;5.38;;;1.23;;
16866;SDS011;8550;52.596;13.320;2023-03-13T09:10:26;5.43;;;1.73;;
16866;SDS011;8550;52.596;13.320;2023-03-13T09:15:28;6.50;;;1.33;;
16866;SDS011;8550;52.596;13.320;2023-03-13T09:20:31;6.95;;;1.35;;
16866;SDS011;8550;52.596;13.320;2023-03-13T09:25:33;8.37;;;1.70;;
16866;SDS011;8550;52.596;13.320;2023-03-13T09:30:37;3.38;;;1.05;;
16866;SDS011;8550;52.596;13.320;2023-03-13T09:35:41;7.90;;;1.73;;
16866;SDS011;8550;52.596;13.320;2023-03-13T09:40:46;9.57;;;1.93;;
16866;SDS011;8550;52.596;13.320;2023-03-13T09:45:50;7.13;;;1.23;;
16866;SDS011;8550;52.596;13.320;2023-03-13T09:50:58;13.52;;;1.58;;
16866;SDS011;8550;52.596;13.320;2023-03-13T09:56:04;11.35;;;1.55;;
16866;SDS011;8550;52.596;13.320;2023-03-13T10:01:13;2.37;;;1.00;;
16866;SDS011;8550;52.596;13.320;2023-03-13T10:06:23;3.00;;;1.17;;
16866;SDS011;8550;52.596;13.320;2023-03-13T10:11:28;11.25;;;1.13;;
16866;SDS011;8550;52.596;13.320;2023-03-13T10:16:36;7.73;;;1.23;;
16866;SDS011;8550;52.596;13.320;2023-03-13T10:21:43;4.68;;;0.75;;
16866;SDS011;8550;52.596;13.320;2023-03-13T10:26:48;3.85;;;0.82;;
16866;SDS011;8550;52.596;13.320;2023-03-13T10:31:53;5.63;;;2.03;;
16866;SDS011;8550;52.596;13.320;2023-03-13T10:36:59;3.70;;;1.03;;
16866;SDS011;8550;52.596;13.320;2023-03-13T10:42:08;3.95;;;1.10;;
16866;SDS011;8550;52.596;13.320;2023-03-13T10:47:11;3.85;;;1.10;;
16866;SDS011;8550;52.596;13.320;2023-03-13T10:52:28;3.13;;;0.80;;
16866;SDS011;8550;52.596;13.320;2023-03-13T10:57:32;7.80;;;1.15;;
16866;SDS011;8550;52.596;13.320;2023-03-13T11:02:36;4.82;;;0.77;;
16866;SDS011;8550;52.596;13.320;2023-03-13T11:07:40;4.90;;;1.20;;
16866;SDS011;8550;52.596;13.320;2023-03-13T11:12:44;3.70;;;0.85;;
16866;SDS011;8550;52.596;13.320;2023-03-13T11:17:48;3.63;;;1.10;;
16866;SDS011;8550;52.596;13.320;2023-03-13T11:23:03;5.10;;;1.10;;
16866;SDS011;8550;52.596;13.320;2023-03-13T11:28:19;3.27;;;0.90;;
16866;SDS011;8550;52.596;13.320;2023-03-13T11:33:32;4.32;;;1.77;;
16866;SDS011;8550;52.596;13.320;2023-03-13T11:38:40;2.90;;;0.43;;
16866;SDS011;8550;52.596;13.320;2023-03-13T11:43:47;2.57;;;0.57;;
16866;SDS011;8550;52.596;13.320;2023-03-13T11:49:07;1.85;;;0.63;;
16866;SDS011;8550;52.596;13.320;2023-03-13T11:54:41;4.38;;;0.80;;
16866;SDS011;8550;52.596;13.320;2023-03-13T12:00:14;2.37;;;0.60;;
16866;SDS011;8550;52.596;13.320;2023-03-13T12:05:21;4.18;;;0.50;;
16866;SDS011;8550;52.596;13.320;2023-03-13T12:10:27;1.55;;;0.60;;
16866;SDS011;8550;52.596;13.320;2023-03-13T12:15:33;3.67;;;0.60;;
16866;SDS011;8550;52.596;13.320;2023-03-13T12:20:39;1.70;;;0.53;;
16866;SDS011;8550;52.596;13.320;2023-03-13T12:25:48;4.90;;;0.60;;
16866;SDS011;8550;52.596;13.320;2023-03-13T12:30:57;3.47;;;0.70;;
16866;SDS011;8550;52.596;13.320;2023-03-13T12:36:05;2.27;;;0.43;;
16866;SDS011;8550;52.596;13.320;2023-03-13T12:41:19;1.50;;;0.50;;
16866;SDS011;8550;52.596;13.320;2023-03-13T12:46:34;3.08;;;0.40;;
16866;SDS011;8550;52.596;13.320;2023-03-13T12:51:42;1.63;;;0.50;;
16866;SDS011;8550;52.596;13.320;2023-03-13T12:57:03;1.45;;;0.40;;
16866;SDS011;8550;52.596;13.320;2023-03-13T13:02:14;1.15;;;0.40;;
16866;SDS011;8550;52.596;13.320;2023-03-13T13:07:20;2.67;;;0.57;;
16866;SDS011;8550;52.596;13.320;2023-03-13T13:12:27;1.43;;;0.67;;
16866;SDS011;8550;52.596;13.320;2023-03-13T13:17:42;2.05;;;0.90;;
16866;SDS011;8550;52.596;13.320;2023-03-13T13:22:52;1.63;;;0.70;;
16866;SDS011;8550;52.596;13.320;2023-03-13T13:27:56;2.17;;;0.80;;
16866;SDS011;8550;52.596;13.320;2023-03-13T13:33:37;1.23;;;0.57;;
16866;SDS011;8550;52.596;13.320;2023-03-13T13:38:40;2.08;;;0.60;;
16866;SDS011;8550;52.596;13.320;2023-03-13T13:43:44;2.10;;;0.60;;
16866;SDS011;8550;52.596;13.320;2023-03-13T13:48:58;3.42;;;0.60;;
16866;SDS011;8550;52.596;13.320;2023-03-13T13:59:37;1.73;;;0.40;;
16866;SDS011;8550;52.596;13.320;2023-03-13T14:04:43;1.30;;;0.40;;
16866;SDS011;8550;52.596;13.320;2023-03-13T14:09:53;5.55;;;0.80;;
16866;SDS011;8550;52.596;13.320;2023-03-13T14:15:12;2.67;;;0.75;;
16866;SDS011;8550;52.596;13.320;2023-03-13T14:20:24;1.60;;;0.57;;
16866;SDS011;8550;52.596;13.320;2023-03-13T14:25:39;1.40;;;0.47;;
16866;SDS011;8550;52.596;13.320;2023-03-13T14:30:44;2.58;;;0.88;;
16866;SDS011;8550;52.596;13.320;2023-03-13T14:35:48;3.57;;;0.53;;
16866;SDS011;8550;52.596;13.320;2023-03-13T14:40:50;1.75;;;0.60;;
16866;SDS011;8550;52.596;13.320;2023-03-13T14:45:55;2.30;;;0.88;;
16866;SDS011;8550;52.596;13.320;2023-03-13T14:51:02;2.67;;;0.90;;
16866;SDS011;8550;52.596;13.320;2023-03-13T14:56:13;2.30;;;0.93;;
16866;SDS011;8550;52.596;13.320;2023-03-13T15:01:24;1.98;;;0.75;;
16866;SDS011;8550;52.596;13.320;2023-03-13T15:06:29;1.88;;;0.80;;
16866;SDS011;8550;52.596;13.320;2023-03-13T15:11:31;2.13;;;0.70;;
16866;SDS011;8550;52.596;13.320;2023-03-13T15:16:35;2.13;;;0.63;;
16866;SDS011;8550;52.596;13.320;2023-03-13T15:21:37;2.60;;;0.90;;
16866;SDS011;8550;52.596;13.320;2023-03-13T15:26:40;1.30;;;0.70;;
16866;SDS011;8550;52.596;13.320;2023-03-13T15:31:43;2.15;;;0.60;;
16866;SDS011;8550;52.596;13.320;2023-03-13T15:36:46;2.08;;;0.60;;
16866;SDS011;8550;52.596;13.320;2023-03-13T15:41:48;2.13;;;0.60;;
16866;SDS011;8550;52.596;13.320;2023-03-13T15:46:51;1.90;;;0.80;;
16866;SDS011;8550;52.596;13.320;2023-03-13T15:51:53;2.55;;;0.90;;
16866;SDS011;8550;52.596;13.320;2023-03-13T15:56:55;2.15;;;0.60;;
16866;SDS011;8550;52.596;13.320;2023-03-13T16:01:58;2.17;;;0.57;;
16866;SDS011;8550;52.596;13.320;2023-03-13T16:07:00;3.08;;;0.70;;
16866;SDS011;8550;52.596;13.320;2023-03-13T16:12:02;5.65;;;0.82;;
16866;SDS011;8550;52.596;13.320;2023-03-13T16:17:11;2.37;;;0.80;;
16866;SDS011;8550;52.596;13.320;2023-03-13T16:22:15;4.93;;;0.82;;
16866;SDS011;8550;52.596;13.320;2023-03-13T16:27:17;2.30;;;0.75;;
16866;SDS011;8550;52.596;13.320;2023-03-13T16:32:21;2.70;;;0.77;;
16866;SDS011;8550;52.596;13.320;2023-03-13T16:37:24;2.03;;;0.90;;
16866;SDS011;8550;52.596;13.320;2023-03-13T16:42:26;2.58;;;0.90;;
16866;SDS011;8550;52.596;13.320;2023-03-13T16:47:30;2.63;;;0.95;;
16866;SDS011;8550;52.596;13.320;2023-03-13T16:52:32;3.57;;;1.03;;
16866;SDS011;8550;52.596;13.320;2023-03-13T16:57:34;3.40;;;0.77;;
16866;SDS011;8550;52.596;13.320;2023-03-13T17:02:38;2.40;;;0.52;;
16866;SDS011;8550;52.596;13.320;2023-03-13T17:07:40;2.57;;;0.67;;
16866;SDS011;8550;52.596;13.320;2023-03-13T17:12:43;2.33;;;0.70;;
16866;SDS011;8550;52.596;13.320;2023-03-13T17:17:47;2.20;;;0.80;;
16866;SDS011;8550;52.596;13.320;2023-03-13T17:22:51;2.80;;;0.90;;
16866;SDS011;8550;52.596;13.320;2023-03-13T17:27:55;2.83;;;0.90;;
16866;SDS011;8550;52.596;13.320;2023-03-13T17:32:58;1.95;;;0.80;;
16866;SDS011;8550;52.596;13.320;2023-03-13T17:38:00;2.13;;;0.90;;
16866;SDS011;8550;52.596;13.320;2023-03-13T17:43:02;4.60;;;0.80;;
16866;SDS011;8550;52.596;13.320;2023-03-13T17:48:07;2.30;;;0.80;;
16866;SDS011;8550;52.596;13.320;2023-03-13T17:53:12;2.05;;;0.70;;
16866;SDS011;8550;52.596;13.320;2023-03-13T17:58:14;3.50;;;1.97;;
16866;SDS011;8550;52.596;13.320;2023-03-13T18:03:17;2.35;;;0.90;;
16866;SDS011;8550;52.596;13.320;2023-03-13T18:08:19;2.20;;;0.70;;
16866;SDS011;8550;52.596;13.320;2023-03-13T18:13:21;2.00;;;0.70;;
16866;SDS011;8550;52.596;13.320;2023-03-13T18:18:25;2.00;;;0.77;;
16866;SDS011;8550;52.596;13.320;2023-03-13T18:23:28;2.25;;;0.75;;
16866;SDS011;8550;52.596;13.320;2023-03-13T18:28:30;3.20;;;0.95;;
16866;SDS011;8550;52.596;13.320;2023-03-13T18:33:33;2.60;;;0.90;;
16866;SDS011;8550;52.596;13.320;2023-03-13T18:38:35;2.63;;;0.90;;
16866;SDS011;8550;52.596;13.320;2023-03-13T18:43:38;3.42;;;0.98;;
16866;SDS011;8550;52.596;13.320;2023-03-13T18:48:41;3.63;;;1.10;;
16866;SDS011;8550;52.596;13.320;2023-03-13T18:53:43;1.73;;;0.60;;
16866;SDS011;8550;52.596;13.320;2023-03-13T18:58:46;1.70;;;0.63;;
16866;SDS011;8550;52.596;13.320;2023-03-13T19:03:50;2.93;;;1.00;;
16866;SDS011;8550;52.596;13.320;2023-03-13T19:08:53;2.70;;;1.00;;
16866;SDS011;8550;52.596;13.320;2023-03-13T19:13:56;1.60;;;0.70;;
16866;SDS011;8550;52.596;13.320;2023-03-13T19:19:00;2.10;;;0.60;;
16866;SDS011;8550;52.596;13.320;2023-03-13T19:24:03;5.63;;;0.77;;
16866;SDS011;8550;52.596;13.320;2023-03-13T19:29:09;4.47;;;0.80;;
16866;SDS011;8550;52.596;13.320;2023-03-13T19:34:15;2.60;;;0.90;;
16866;SDS011;8550;52.596;13.320;2023-03-13T19:39:18;2.47;;;0.70;;
16866;SDS011;8550;52.596;13.320;2023-03-13T19:44:22;2.45;;;0.88;;
16866;SDS011;8550;52.596;13.320;2023-03-13T19:49:26;1.95;;;0.82;;
16866;SDS011;8550;52.596;13.320;2023-03-13T19:54:28;4.13;;;1.00;;
16866;SDS011;8550;52.596;13.320;2023-03-13T19:59:30;3.13;;;1.17;;
16866;SDS011;8550;52.596;13.320;2023-03-13T20:04:35;3.97;;;1.13;;
16866;SDS011;8550;52.596;13.320;2023-03-13T20:09:39;2.80;;;1.10;;
16866;SDS011;8550;52.596;13.320;2023-03-13T20:14:41;4.33;;;0.77;;
16866;SDS011;8550;52.596;13.320;2023-03-13T20:19:45;3.15;;;1.15;;
16866;SDS011;8550;52.596;13.320;2023-03-13T20:24:47;3.28;;;1.10;;
16866;SDS011;8550;52.596;13.320;2023-03-13T20:29:49;2.83;;;0.70;;
16866;SDS011;8550;52.596;13.320;2023-03-13T20:34:52;3.28;;;1.23;;
16866;SDS011;8550;52.596;13.320;2023-03-13T20:39:54;7.88;;;2.22;;
16866;SDS011;8550;52.596;13.320;2023-03-13T20:44:56;5.90;;;1.20;;
16866;SDS011;8550;52.596;13.320;2023-03-13T20:50:00;8.73;;;1.53;;
16866;SDS011;8550;52.596;13.320;2023-03-13T20:55:02;4.72;;;1.48;;
16866;SDS011;8550;52.596;13.320;2023-03-13T21:00:05;3.55;;;1.33;;
16866;SDS011;8550;52.596;13.320;2023-03-13T21:05:10;3.70;;;1.37;;
16866;SDS011;8550;52.596;13.320;2023-03-13T21:10:12;3.90;;;1.50;;
16866;SDS011;8550;52.596;13.320;2023-03-13T21:15:15;3.15;;;1.20;;
16866;SDS011;8550;52.596;13.320;2023-03-13T21:20:18;2.83;;;1.10;;
16866;SDS011;8550;52.596;13.320;2023-03-13T21:25:20;4.63;;;1.25;;
16866;SDS011;8550;52.596;13.320;2023-03-13T21:30:22;3.65;;;1.40;;
16866;SDS011;8550;52.596;13.320;2023-03-13T21:35:26;3.87;;;1.70;;
16866;SDS011;8550;52.596;13.320;2023-03-13T21:40:28;5.63;;;1.03;;
16866;SDS011;8550;52.596;13.320;2023-03-13T21:45:30;4.28;;;1.10;;
16866;SDS011;8550;52.596;13.320;2023-03-13T21:50:35;2.20;;;0.55;;
16866;SDS011;8550;52.596;13.320;2023-03-13T21:55:37;2.07;;;0.60;;
16866;SDS011;8550;52.596;13.320;2023-03-13T22:00:39;2.95;;;0.95;;
16866;SDS011;8550;52.596;13.320;2023-03-13T22:05:43;3.30;;;0.85;;
16866;SDS011;8550;52.596;13.320;2023-03-13T22:10:48;2.70;;;0.90;;
16866;SDS011;8550;52.596;13.320;2023-03-13T22:15:51;1.80;;;0.68;;
16866;SDS011;8550;52.596;13.320;2023-03-13T22:20:56;2.22;;;0.70;;
16866;SDS011;8550;52.596;13.320;2023-03-13T22:25:58;2.20;;;0.80;;
16866;SDS011;8550;52.596;13.320;2023-03-13T22:31:00;2.50;;;0.77;;
16866;SDS011;8550;52.596;13.320;2023-03-13T22:36:05;2.40;;;0.70;;
16866;SDS011;8550;52.596;13.320;2023-03-13T22:41:09;3.38;;;0.90;;
16866;SDS011;8550;52.596;13.320;2023-03-13T22:46:13;3.23;;;0.97;;
16866;SDS011;8550;52.596;13.320;2023-03-13T22:51:17;3.13;;;0.70;;
16866;SDS011;8550;52.596;13.320;2023-03-13T22:56:19;4.00;;;0.55;;
16866;SDS011;8550;52.596;13.320;2023-03-13T23:01:21;1.77;;;0.63;;
16866;SDS011;8550;52.596;13.320;2023-03-13T23:06:24;3.88;;;0.80;;
16866;SDS011;8550;52.596;13.320;2023-03-13T23:11:27;1.75;;;0.40;;
16866;SDS011;8550;52.596;13.320;2023-03-13T23:16:29;2.37;;;0.53;;
16866;SDS011;8550;52.596;13.320;2023-03-13T23:21:32;1.87;;;0.60;;
16866;SDS011;8550;52.596;13.320;2023-03-13T23:26:35;4.30;;;0.70;;
16866;SDS011;8550;52.596;13.320;2023-03-13T23:31:37;1.75;;;0.70;;
16866;SDS011;8550;52.596;13.320;2023-03-13T23:36:41;2.63;;;0.77;;
16866;SDS011;8550;52.596;13.320;2023-03-13T23:41:43;1.95;;;0.70;;
16866;SDS011;8550;52.596;13.320;2023-03-13T23:46:45;1.67;;;0.60;;
16866;SDS011;8550;52.596;13.320;2023-03-13T23:51:48;1.93;;;0.50;;
16866;SDS011;8550;52.596;13.320;2023-03-13T23:56:50;1.75;;;0.40;;
